createdAt,value
2022-10-23T00:02:15.471Z,100431.77
2022-10-23T00:04:43.667Z,100426.85
2022-10-23T00:07:12.049Z,100430.98
2022-10-23T00:09:40.415Z,100435.89
2022-10-23T00:12:08.497Z,100434.61
2022-10-23T00:14:36.567Z,100432.24
2022-10-23T00:17:04.734Z,100433.96
2022-10-23T00:19:32.922Z,100434.56
2022-10-23T00:22:00.996Z,100435.55
2022-10-23T00:24:29.286Z,100437.02
2022-10-23T00:26:57.333Z,100439.34
2022-10-23T00:29:25.820Z,100433.89
2022-10-23T00:31:55.977Z,100441.77
2022-10-23T00:34:23.995Z,100440.66
2022-10-23T00:36:52.087Z,100437.47
2022-10-23T00:39:20.160Z,100442.38
2022-10-23T00:41:48.324Z,100440.17
2022-10-23T00:44:22.638Z,100436.14
2022-10-23T00:46:51.323Z,100432.08
2022-10-23T00:49:20.625Z,100432.95
2022-10-23T00:52:12.043Z,100435.27
2022-10-23T00:54:42.246Z,100444.21
2022-10-23T00:57:14.449Z,100442.65
2022-10-23T00:59:43.224Z,100445.33
2022-10-23T01:02:11.358Z,100447.64
2022-10-23T01:04:39.640Z,100451.59
2022-10-23T01:07:43.339Z,100449.98
2022-10-23T01:10:20.772Z,100451.59
2022-10-23T01:13:11.604Z,100450.97
2022-10-23T01:15:47.841Z,100454.63
2022-10-23T01:18:28.416Z,100451.19
2022-10-23T01:21:28.436Z,100448.08
2022-10-23T01:24:17.092Z,100453.00
2022-10-23T01:27:16.071Z,100454.35
2022-10-23T01:29:52.050Z,100458.55
2022-10-23T01:32:35.989Z,100457.23
2022-10-23T01:35:27.940Z,100461.80
2022-10-23T01:38:09.650Z,100462.11
2022-10-23T01:40:47.408Z,100461.28
2022-10-23T01:43:21.114Z,100457.70
2022-10-23T01:45:57.674Z,100463.12
2022-10-23T01:48:32.103Z,100467.11
2022-10-23T01:51:04.907Z,100468.49
2022-10-23T01:53:41.355Z,100467.46
2022-10-23T01:56:15.455Z,100464.44
2022-10-23T01:58:47.884Z,100465.54
2022-10-23T02:01:20.293Z,100463.33
2022-10-23T02:03:51.107Z,100472.02
2022-10-23T02:06:20.064Z,100469.06
2022-10-23T02:08:48.615Z,100476.55
2022-10-23T02:11:21.981Z,100474.42
2022-10-23T02:14:14.870Z,100471.73
2022-10-23T02:16:50.523Z,100472.71
2022-10-23T02:19:21.759Z,100475.85
2022-10-23T02:21:58.879Z,100475.09
2022-10-23T02:24:34.319Z,100469.05
2022-10-23T02:27:08.201Z,100472.82
2022-10-23T02:29:46.093Z,100475.86
2022-10-23T02:32:15.712Z,100470.64
2022-10-23T02:34:44.291Z,100470.84
2022-10-23T02:37:12.454Z,100468.16
2022-10-23T02:39:41.148Z,100467.90
2022-10-23T02:42:32.164Z,100467.13
2022-10-23T02:45:12.116Z,100464.45
2022-10-23T02:47:56.045Z,100463.33
2022-10-23T02:50:48.414Z,100463.52
2022-10-23T02:53:32.243Z,100463.99
2022-10-23T02:56:07.268Z,100469.84
2022-10-23T02:58:41.792Z,100472.65
2022-10-23T03:01:17.769Z,100465.68
2022-10-23T03:03:52.582Z,100474.00
2022-10-23T03:06:22.701Z,100477.71
2022-10-23T03:08:59.373Z,100475.60
2022-10-23T03:11:27.641Z,100476.80
2022-10-23T03:13:56.348Z,100480.09
2022-10-23T03:16:25.130Z,100477.75
2022-10-23T03:18:55.857Z,100475.80
2022-10-23T03:21:24.130Z,100476.11
2022-10-23T03:23:54.151Z,100474.75
2022-10-23T03:26:28.869Z,100477.67
2022-10-23T03:28:56.948Z,100475.72
2022-10-23T03:31:25.510Z,100478.65
2022-10-23T03:33:57.294Z,100482.62
2022-10-23T03:36:25.874Z,100482.70
2022-10-23T03:38:54.059Z,100483.47
2022-10-23T03:41:22.231Z,100477.81
2022-10-23T03:43:50.341Z,100471.92
2022-10-23T03:46:18.577Z,100468.84
2022-10-23T03:48:46.639Z,100471.02
2022-10-23T03:51:14.723Z,100471.98
2022-10-23T03:53:42.813Z,100468.41
2022-10-23T03:56:10.857Z,100469.01
2022-10-23T03:58:38.810Z,100466.95
2022-10-23T04:01:08.412Z,100468.38
2022-10-23T04:03:37.542Z,100461.58
2022-10-23T04:06:05.909Z,100466.46
2022-10-23T04:08:34.180Z,100465.70
2022-10-23T04:11:04.001Z,100457.67
2022-10-23T04:13:37.355Z,100461.13
2022-10-23T04:16:05.675Z,100458.80
2022-10-23T04:18:33.849Z,100458.71
2022-10-23T04:21:01.873Z,100456.22
2022-10-23T04:23:29.988Z,100456.42
2022-10-23T04:25:59.645Z,100456.94
2022-10-23T04:28:27.970Z,100458.04
2022-10-23T04:30:56.560Z,100462.91
2022-10-23T04:33:24.947Z,100466.50
2022-10-23T04:35:53.621Z,100470.85
2022-10-23T04:38:21.908Z,100468.44
2022-10-23T04:40:51.201Z,100473.38
2022-10-23T04:43:23.573Z,100474.14
2022-10-23T04:45:51.846Z,100480.92
2022-10-23T04:48:24.342Z,100481.40
2022-10-23T04:51:13.480Z,100482.79
2022-10-23T04:54:07.722Z,100485.44
2022-10-23T04:56:38.466Z,100483.83
2022-10-23T04:59:14.868Z,100485.91
2022-10-23T05:01:43.479Z,100486.38
2022-10-23T05:04:12.025Z,100483.84
2022-10-23T05:07:00.088Z,100490.08
2022-10-23T05:09:46.707Z,100491.02
2022-10-23T05:12:31.141Z,100493.25
2022-10-23T05:15:01.672Z,100493.55
2022-10-23T05:17:35.750Z,100496.08
2022-10-23T05:20:07.825Z,100490.99
2022-10-23T05:22:39.352Z,100494.70
2022-10-23T05:25:12.276Z,100497.29
2022-10-23T05:27:42.688Z,100502.38
2022-10-23T05:30:13.758Z,100499.27
2022-10-23T05:32:42.210Z,100500.99
2022-10-23T05:35:19.538Z,100499.79
2022-10-23T05:37:53.614Z,100494.52
2022-10-23T05:40:24.887Z,100494.52
2022-10-23T05:42:59.606Z,100493.61
2022-10-23T05:45:38.337Z,100494.11
2022-10-23T05:48:35.829Z,100491.14
2022-10-23T05:51:12.064Z,100484.26
2022-10-23T05:53:49.646Z,100481.61
2022-10-23T05:56:34.707Z,100480.91
2022-10-23T05:59:15.915Z,100486.55
2022-10-23T06:01:51.972Z,100487.96
2022-10-23T06:04:34.072Z,100492.45
2022-10-23T06:07:09.005Z,100500.02
2022-10-23T06:09:39.420Z,100496.55
2022-10-23T06:12:08.629Z,100502.95
2022-10-23T06:14:36.890Z,100498.52
2022-10-23T06:17:05.388Z,100501.47
2022-10-23T06:19:36.932Z,100510.77
2022-10-23T06:22:06.546Z,100511.45
2022-10-23T06:24:47.300Z,100509.91
2022-10-23T06:27:20.808Z,100510.09
2022-10-23T06:29:49.296Z,100512.22
2022-10-23T06:32:18.800Z,100513.55
2022-10-23T06:34:57.384Z,100514.80
2022-10-23T06:37:27.533Z,100518.58
2022-10-23T06:40:09.866Z,100519.66
2022-10-23T06:42:51.018Z,100522.45
2022-10-23T06:45:34.361Z,100523.79
2022-10-23T06:48:16.348Z,100525.88
2022-10-23T06:51:08.857Z,100528.10
2022-10-23T06:53:44.233Z,100526.94
2022-10-23T06:56:31.395Z,100528.48
2022-10-23T06:59:01.654Z,100530.34
2022-10-23T07:01:31.184Z,100531.90
2022-10-23T07:04:03.033Z,100526.34
2022-10-23T07:06:33.690Z,100526.63
2022-10-23T07:09:02.876Z,100520.80
2022-10-23T07:11:56.340Z,100517.55
2022-10-23T07:14:32.606Z,100515.98
2022-10-23T07:17:03.955Z,100516.92
2022-10-23T07:19:32.231Z,100518.41
2022-10-23T07:22:08.069Z,100520.97
2022-10-23T07:24:56.020Z,100516.59
2022-10-23T07:27:28.233Z,100522.21
2022-10-23T07:29:59.836Z,100523.23
2022-10-23T07:32:31.594Z,100529.05
2022-10-23T07:35:22.302Z,100521.75
2022-10-23T07:37:58.478Z,100518.83
2022-10-23T07:40:28.697Z,100515.45
2022-10-23T07:42:59.721Z,100517.05
2022-10-23T07:45:28.631Z,100518.50
2022-10-23T07:47:57.089Z,100517.73
2022-10-23T07:50:27.730Z,100519.33
2022-10-23T07:52:59.333Z,100521.48
2022-10-23T07:55:39.657Z,100518.58
2022-10-23T07:58:18.076Z,100520.84
2022-10-23T08:01:05.518Z,100527.67
2022-10-23T08:03:45.057Z,100530.20
2022-10-23T08:06:19.955Z,100534.61
2022-10-23T08:09:01.012Z,100536.92
2022-10-23T08:11:53.059Z,100542.10
2022-10-23T08:14:32.112Z,100540.41
2022-10-23T08:17:15.403Z,100540.13
2022-10-23T08:20:13.416Z,100534.19
2022-10-23T08:22:52.297Z,100530.02
2022-10-23T08:28:14.054Z,100533.31
2022-10-23T08:30:56.424Z,100531.65
2022-10-23T08:33:29.889Z,100532.27
2022-10-23T08:36:09.507Z,100534.81
2022-10-23T08:38:55.817Z,100533.27
2022-10-23T08:41:33.431Z,100536.20
2022-10-23T08:44:36.607Z,100531.34
2022-10-23T08:47:21.030Z,100542.98
2022-10-23T08:50:47.652Z,100541.03
2022-10-23T08:53:44.321Z,100538.43
2022-10-23T08:56:43.314Z,100544.27
2022-10-23T08:59:38.435Z,100549.30
2022-10-23T09:02:32.725Z,100546.88
2022-10-23T09:05:32.952Z,100548.06
2022-10-23T09:08:27.823Z,100551.45
2022-10-23T09:11:41.962Z,100552.73
2022-10-23T09:15:06.495Z,100551.04
2022-10-23T09:17:48.114Z,100548.77
2022-10-23T09:20:44.470Z,100550.94
2022-10-23T09:23:43.393Z,100547.39
2022-10-23T09:26:30.702Z,100548.58
2022-10-23T09:29:27.659Z,100548.65
2022-10-23T09:32:10.980Z,100546.54
2022-10-23T09:34:58.594Z,100547.91
2022-10-23T09:37:41.360Z,100547.02
2022-10-23T09:40:36.529Z,100543.29
2022-10-23T09:43:29.064Z,100552.30
2022-10-23T09:46:25.869Z,100549.61
2022-10-23T09:49:35.285Z,100539.88
2022-10-23T09:52:19.724Z,100537.94
2022-10-23T09:55:10.589Z,100535.23
2022-10-23T09:57:54.921Z,100539.31
2022-10-23T10:00:28.904Z,100538.06
2022-10-23T10:03:10.358Z,100536.65
2022-10-23T10:06:06.882Z,100539.83
2022-10-23T10:08:53.647Z,100537.20
2022-10-23T10:11:40.296Z,100537.80
2022-10-23T10:14:28.481Z,100532.73
2022-10-23T10:17:26.735Z,100529.02
2022-10-23T10:20:21.857Z,100530.71
2022-10-23T10:22:59.697Z,100525.47
2022-10-23T10:26:05.545Z,100519.49
2022-10-23T10:28:55.987Z,100514.28
2022-10-23T10:32:17.777Z,100513.48
2022-10-23T10:35:14.191Z,100512.25
2022-10-23T10:38:27.037Z,100509.58
2022-10-23T10:41:40.863Z,100504.88
2022-10-23T10:44:42.049Z,100504.08
2022-10-23T10:47:35.404Z,100501.36
2022-10-23T10:50:11.729Z,100500.98
2022-10-23T10:53:21.817Z,100497.77
2022-10-23T10:56:04.999Z,100492.43
2022-10-23T10:58:45.710Z,100486.88
2022-10-23T11:01:28.131Z,100482.34
2022-10-23T11:04:19.027Z,100479.69
2022-10-23T11:06:51.614Z,100472.31
2022-10-23T11:09:29.603Z,100471.33
2022-10-23T11:11:59.823Z,100469.42
2022-10-23T11:14:33.331Z,100461.02
2022-10-23T11:17:09.919Z,100467.14
2022-10-23T11:20:02.858Z,100467.45
2022-10-23T11:22:52.560Z,100466.01
2022-10-23T11:25:44.254Z,100472.67
2022-10-23T11:28:35.609Z,100475.22
2022-10-23T11:31:35.702Z,100468.08
2022-10-23T11:34:48.729Z,100467.77
2022-10-23T11:37:18.831Z,100458.58
2022-10-23T11:40:22.647Z,100450.63
2022-10-23T11:42:51.850Z,100448.14
2022-10-23T11:45:30.081Z,100448.96
2022-10-23T11:48:13.812Z,100444.52
2022-10-23T11:50:45.156Z,100441.77
2022-10-23T11:53:42.920Z,100436.73
2022-10-23T11:56:14.778Z,100424.04
2022-10-23T11:58:45.197Z,100416.75
2022-10-23T12:01:32.377Z,100416.89
2022-10-23T12:04:27.940Z,100414.83
2022-10-23T12:07:00.811Z,100408.89
2022-10-23T12:09:45.589Z,100410.00
2022-10-23T12:12:28.673Z,100400.08
2022-10-23T12:15:22.810Z,100394.79
2022-10-23T12:17:54.471Z,100387.89
2022-10-23T12:21:01.528Z,100382.52
2022-10-23T12:23:50.298Z,100382.65
2022-10-23T12:26:34.658Z,100378.23
2022-10-23T12:29:29.616Z,100373.63
2022-10-23T12:32:26.357Z,100372.60
2022-10-23T12:35:04.712Z,100363.35
2022-10-23T12:38:08.639Z,100363.96
2022-10-23T12:40:39.171Z,100365.42
2022-10-23T12:43:26.985Z,100363.30
2022-10-23T12:46:00.722Z,100357.99
2022-10-23T12:48:29.978Z,100359.12
2022-10-23T12:50:59.095Z,100359.65
2022-10-23T12:53:28.170Z,100362.23
2022-10-23T12:56:04.985Z,100355.16
2022-10-23T12:58:37.012Z,100355.54
2022-10-23T13:01:08.320Z,100351.73
2022-10-23T13:03:39.538Z,100347.48
2022-10-23T13:06:11.803Z,100344.26
2022-10-23T13:08:48.450Z,100345.62
2022-10-23T13:11:36.944Z,100343.58
2022-10-23T13:14:39.284Z,100338.46
2022-10-23T13:17:12.104Z,100333.86
2022-10-23T13:19:40.382Z,100325.69
2022-10-23T13:22:20.269Z,100322.77
2022-10-23T13:24:48.802Z,100321.66
2022-10-23T13:27:33.594Z,100320.77
2022-10-23T13:30:03.220Z,100321.02
2022-10-23T13:32:33.474Z,100323.02
2022-10-23T13:35:20.387Z,100320.33
2022-10-23T13:37:51.267Z,100321.11
2022-10-23T13:40:28.149Z,100325.61
2022-10-23T13:42:57.540Z,100318.55
2022-10-23T13:45:27.552Z,100316.95
2022-10-23T13:47:55.711Z,100320.95
2022-10-23T13:50:25.129Z,100323.35
2022-10-23T13:52:53.599Z,100324.46
2022-10-23T13:55:24.661Z,100322.81
2022-10-23T13:57:53.211Z,100317.44
2022-10-23T14:00:21.695Z,100316.95
2022-10-23T14:02:50.123Z,100318.44
2022-10-23T14:05:18.457Z,100316.17
2022-10-23T14:07:46.810Z,100315.50
2022-10-23T14:10:15.328Z,100313.80
2022-10-23T14:12:44.523Z,100313.33
2022-10-23T14:15:13.311Z,100313.59
2022-10-23T14:17:41.582Z,100311.66
2022-10-23T14:20:10.591Z,100306.13
2022-10-23T14:22:39.075Z,100306.20
2022-10-23T14:25:07.749Z,100308.94
2022-10-23T14:27:36.125Z,100305.90
2022-10-23T14:30:05.736Z,100305.97
2022-10-23T14:32:34.111Z,100308.06
2022-10-23T14:35:04.394Z,100308.70
2022-10-23T14:37:33.744Z,100301.40
2022-10-23T14:40:02.204Z,100295.95
2022-10-23T14:42:34.333Z,100288.09
2022-10-23T14:45:03.579Z,100285.44
2022-10-23T14:47:32.376Z,100285.22
2022-10-23T14:50:00.847Z,100284.81
2022-10-23T14:52:29.434Z,100278.20
2022-10-23T14:54:57.702Z,100275.72
2022-10-23T14:57:25.979Z,100274.03
2022-10-23T14:59:54.666Z,100276.42
2022-10-23T15:02:23.055Z,100275.55
2022-10-23T15:04:51.520Z,100276.72
2022-10-23T15:07:20.128Z,100275.84
2022-10-23T15:09:48.402Z,100277.02
2022-10-23T15:12:16.770Z,100276.05
2022-10-23T15:14:45.657Z,100269.59
2022-10-23T15:17:15.758Z,100268.48
2022-10-23T15:19:44.678Z,100265.54
2022-10-23T15:22:12.937Z,100265.64
2022-10-23T15:24:41.316Z,100268.48
2022-10-23T15:29:43.161Z,100266.98
2022-10-23T15:32:12.616Z,100266.02
2022-10-23T15:34:42.940Z,100268.55
2022-10-23T15:37:11.935Z,100267.97
2022-10-23T15:39:40.954Z,100269.23
2022-10-23T15:42:10.831Z,100270.30
2022-10-23T15:44:41.464Z,100272.08
2022-10-23T15:47:10.462Z,100274.21
2022-10-23T15:49:40.240Z,100275.48
2022-10-23T15:54:42.264Z,100277.18
2022-10-23T15:57:11.040Z,100277.92
2022-10-23T15:59:39.462Z,100274.73
2022-10-23T16:02:11.374Z,100277.81
2022-10-23T16:04:40.374Z,100280.88
2022-10-23T16:07:09.372Z,100281.11
2022-10-23T16:09:38.368Z,100280.02
2022-10-23T16:12:07.246Z,100279.86
2022-10-23T16:14:36.473Z,100288.06
2022-10-23T16:17:05.339Z,100292.39
2022-10-23T16:19:34.750Z,100293.89
2022-10-23T16:22:03.936Z,100291.48
2022-10-23T16:24:33.746Z,100292.34
2022-10-23T16:27:02.346Z,100292.92
2022-10-23T16:29:31.887Z,100291.60
2022-10-23T16:32:00.726Z,100285.05
2022-10-23T16:34:29.544Z,100280.91
2022-10-23T16:36:58.243Z,100273.74
2022-10-23T16:39:54.343Z,100271.64
2022-10-23T16:42:43.471Z,100273.64
2022-10-23T16:45:34.389Z,100272.48
2022-10-23T16:48:08.111Z,100273.35
2022-10-23T16:50:40.948Z,100272.85
2022-10-23T16:53:09.690Z,100271.73
2022-10-23T16:55:41.562Z,100273.27
2022-10-23T16:58:10.665Z,100267.06
2022-10-23T17:00:40.342Z,100259.91
2022-10-23T17:03:11.414Z,100256.38
2022-10-23T17:05:40.581Z,100258.81
2022-10-23T17:08:10.349Z,100253.87
2022-10-23T17:10:40.015Z,100240.27
2022-10-23T17:13:10.539Z,100243.71
2022-10-23T17:18:14.626Z,100255.86
2022-10-23T17:20:43.455Z,100253.05
2022-10-23T17:23:12.981Z,100258.16
2022-10-23T17:25:43.052Z,100260.64
2022-10-23T17:28:12.248Z,100269.20
2022-10-23T17:30:41.382Z,100267.41
2022-10-23T17:33:10.940Z,100267.66
2022-10-23T17:35:40.959Z,100275.70
2022-10-23T17:38:10.309Z,100275.56
2022-10-23T17:40:40.821Z,100265.86
2022-10-23T17:43:10.034Z,100253.43
2022-10-23T17:45:40.788Z,100242.71
2022-10-23T17:48:09.826Z,100232.05
2022-10-23T17:50:38.755Z,100224.66
2022-10-23T17:53:08.260Z,100226.47
2022-10-23T17:55:41.761Z,100225.14
2022-10-23T17:58:10.641Z,100222.57
2022-10-23T18:00:39.130Z,100215.17
2022-10-23T18:03:07.927Z,100214.04
2022-10-23T18:08:11.831Z,100220.89
2022-10-23T18:10:40.629Z,100217.84
2022-10-23T18:13:09.838Z,100218.41
2022-10-23T18:15:40.156Z,100216.57
2022-10-23T18:18:08.937Z,100214.36
2022-10-23T18:20:41.525Z,100215.85
2022-10-23T18:23:10.405Z,100215.02
2022-10-23T18:25:43.404Z,100214.52
2022-10-23T18:28:12.822Z,100211.24
2022-10-23T18:30:41.991Z,100207.08
2022-10-23T18:33:11.513Z,100206.42
2022-10-23T18:35:40.836Z,100205.73
2022-10-23T18:38:11.801Z,100200.96
2022-10-23T18:40:43.914Z,100198.31
2022-10-23T18:43:15.268Z,100197.94
2022-10-23T18:45:48.960Z,100196.69
2022-10-23T18:48:17.867Z,100188.61
2022-10-23T18:50:47.489Z,100187.33
2022-10-23T18:53:17.291Z,100187.29
2022-10-23T18:55:51.506Z,100183.70
2022-10-23T18:58:24.844Z,100180.96
2022-10-23T19:00:55.205Z,100174.79
2022-10-23T19:03:26.044Z,100170.49
2022-10-23T19:05:57.535Z,100170.28
2022-10-23T19:08:29.690Z,100169.86
2022-10-23T19:11:00.965Z,100168.08
2022-10-23T19:13:31.579Z,100163.96
2022-10-23T19:16:05.405Z,100164.73
2022-10-23T19:18:37.842Z,100164.63
2022-10-23T19:21:08.997Z,100169.34
2022-10-23T19:23:42.158Z,100167.36
2022-10-23T19:26:13.751Z,100162.35
2022-10-23T19:28:47.716Z,100159.56
2022-10-23T19:31:19.146Z,100156.48
2022-10-23T19:33:50.315Z,100158.34
2022-10-23T19:36:23.395Z,100152.89
2022-10-23T19:38:54.854Z,100147.73
2022-10-23T19:41:28.249Z,100142.80
2022-10-23T19:43:57.936Z,100129.55
2022-10-23T19:46:29.472Z,100132.28
2022-10-23T19:49:00.837Z,100138.94
2022-10-23T19:51:30.999Z,100142.73
2022-10-23T19:54:01.819Z,100145.36
2022-10-23T19:56:32.265Z,100142.65
2022-10-23T19:59:01.896Z,100139.72
2022-10-23T20:01:32.534Z,100134.88
2022-10-23T20:04:04.275Z,100126.93
2022-10-23T20:06:36.992Z,100125.15
2022-10-23T20:09:10.039Z,100117.77
2022-10-23T20:11:41.422Z,100115.54
2022-10-23T20:14:11.374Z,100115.61
2022-10-23T20:16:50.177Z,100113.77
2022-10-23T20:19:27.875Z,100109.04
2022-10-23T20:22:00.300Z,100108.00
2022-10-23T20:24:31.229Z,100099.89
2022-10-23T20:27:03.315Z,100092.55
2022-10-23T20:29:36.872Z,100086.16
2022-10-23T20:32:07.834Z,100083.19
2022-10-23T20:34:38.164Z,100087.59
2022-10-23T20:37:08.223Z,100085.98
2022-10-23T20:39:40.375Z,100089.13
2022-10-23T20:42:09.533Z,100098.48
2022-10-23T20:44:38.629Z,100101.40
2022-10-23T20:47:07.706Z,100100.05
2022-10-23T20:49:37.497Z,100103.98
2022-10-23T20:52:06.555Z,100101.04
2022-10-23T20:54:38.386Z,100098.73
2022-10-23T20:57:07.487Z,100099.05
2022-10-23T20:59:36.273Z,100095.64
2022-10-23T21:02:05.672Z,100088.38
2022-10-23T21:04:36.002Z,100080.79
2022-10-23T21:07:10.037Z,100086.73
2022-10-23T21:09:40.514Z,100091.42
2022-10-23T21:12:09.513Z,100098.71
2022-10-23T21:14:38.311Z,100092.80
2022-10-23T21:17:08.830Z,100089.80
2022-10-23T21:19:37.213Z,100083.09
2022-10-23T21:22:05.493Z,100071.76
2022-10-23T21:24:34.080Z,100062.77
2022-10-23T21:27:02.464Z,100054.08
2022-10-23T21:29:30.718Z,100046.80
2022-10-23T21:32:01.666Z,100046.36
2022-10-23T21:34:30.768Z,100046.35
2022-10-23T21:37:15.082Z,100050.98
2022-10-23T21:39:45.000Z,100050.20
2022-10-23T21:42:14.383Z,100041.20
2022-10-23T21:44:42.608Z,100036.33
2022-10-23T21:47:10.993Z,100032.71
2022-10-23T21:49:39.375Z,100026.98
2022-10-23T21:52:07.862Z,100021.67
2022-10-23T21:54:36.224Z,100019.64
2022-10-23T21:57:04.498Z,100016.09
2022-10-23T21:59:35.989Z,100011.58
2022-10-23T22:02:04.829Z,100008.77
2022-10-23T22:04:33.129Z,100014.14
2022-10-23T22:07:03.059Z,100013.14
2022-10-23T22:09:32.744Z,100009.16
2022-10-23T22:12:01.597Z,100006.21
2022-10-23T22:14:29.912Z,100002.13
2022-10-23T22:16:58.164Z,100006.08
2022-10-23T22:19:26.784Z,100003.71
2022-10-23T22:21:55.353Z,99994.69
2022-10-23T22:24:24.062Z,99990.34
2022-10-23T22:26:55.474Z,99988.81
2022-10-23T22:29:27.173Z,99978.98
2022-10-23T22:31:56.754Z,99977.38
2022-10-23T22:34:48.313Z,99975.92
2022-10-23T22:37:15.832Z,99963.00
2022-10-23T22:39:44.110Z,99975.41
2022-10-23T22:42:12.394Z,99984.42
2022-10-23T22:44:40.570Z,99984.50
2022-10-23T22:47:09.044Z,99984.97
2022-10-23T22:49:38.556Z,99993.52
2022-10-23T22:52:06.987Z,99995.78
2022-10-23T22:54:35.261Z,99998.92
2022-10-23T22:57:03.707Z,99996.29
2022-10-23T22:59:31.971Z,99991.67
2022-10-23T23:02:00.148Z,99988.34
2022-10-23T23:04:43.545Z,99994.73
2022-10-23T23:07:12.993Z,99998.46
2022-10-23T23:09:43.170Z,100000.95
2022-10-23T23:12:13.311Z,99998.52
2022-10-23T23:14:43.247Z,100005.89
2022-10-23T23:17:12.131Z,100002.81
2022-10-23T23:19:40.423Z,100000.61
2022-10-23T23:22:08.877Z,100002.29
2022-10-23T23:24:36.959Z,100000.26
2022-10-23T23:27:05.240Z,100001.43
2022-10-23T23:29:33.400Z,99996.31
2022-10-23T23:32:01.633Z,99994.52
2022-10-23T23:34:29.866Z,99996.48
2022-10-23T23:36:58.283Z,99997.38
2022-10-23T23:39:26.508Z,100001.23
2022-10-23T23:41:54.786Z,100007.17
2022-10-23T23:44:22.978Z,100014.66
2022-10-23T23:46:51.141Z,100021.57
2022-10-23T23:49:19.198Z,100023.90
2022-10-23T23:51:47.392Z,100026.26
2022-10-23T23:54:15.555Z,100028.05
2022-10-23T23:56:43.542Z,100028.48
2022-10-23T23:59:11.702Z,100041.08
